sensor_id;sensor_type;location;lat;lon;timestamp;pressure;altitude;pressure_sealevel;temperature;humidity
50057;BME280;36875;49.468;11.200;2022-08-27T00:02:08;97618.78;;;22.91;59.78
50057;BME280;36875;49.468;11.200;2022-08-27T00:04:34;97625.06;;;22.91;59.86
50057;BME280;36875;49.468;11.200;2022-08-27T00:07:01;97611.91;;;22.85;59.70
50057;BME280;36875;49.468;11.200;2022-08-27T00:09:29;97622.66;;;22.90;59.66
50057;BME280;36875;49.468;11.200;2022-08-27T00:11:57;97624.59;;;22.89;59.90
50057;BME280;36875;49.468;11.200;2022-08-27T00:14:24;97622.66;;;22.90;59.99
50057;BME280;36875;49.468;11.200;2022-08-27T00:16:50;97621.88;;;22.89;59.81
50057;BME280;36875;49.468;11.200;2022-08-27T00:19:16;97624.59;;;22.89;59.77
50057;BME280;36875;49.468;11.200;2022-08-27T00:21:42;97626.56;;;22.89;59.67
50057;BME280;36875;49.468;11.200;2022-08-27T00:24:08;97620.03;;;22.81;59.61
50057;BME280;36875;49.468;11.200;2022-08-27T00:26:35;97634.78;;;22.89;59.59
50057;BME280;36875;49.468;11.200;2022-08-27T00:29:00;97639.50;;;22.88;59.61
50057;BME280;36875;49.468;11.200;2022-08-27T00:31:26;97636.75;;;22.88;59.79
50057;BME280;36875;49.468;11.200;2022-08-27T00:33:52;97644.97;;;22.88;59.64
50057;BME280;36875;49.468;11.200;2022-08-27T00:36:18;97629.38;;;22.80;59.53
50057;BME280;36875;49.468;11.200;2022-08-27T00:38:44;97638.66;;;22.88;59.70
50057;BME280;36875;49.468;11.200;2022-08-27T00:41:10;97637.06;;;22.87;59.35
50057;BME280;36875;49.468;11.200;2022-08-27T00:43:49;97639.00;;;22.86;59.64
50057;BME280;36875;49.468;11.200;2022-08-27T00:46:20;97639.00;;;22.86;59.50
50057;BME280;36875;49.468;11.200;2022-08-27T00:48:52;97644.16;;;22.88;59.56
50057;BME280;36875;49.468;11.200;2022-08-27T00:51:19;97615.59;;;22.68;59.42
50057;BME280;36875;49.468;11.200;2022-08-27T00:53:47;97647.22;;;22.86;59.29
50057;BME280;36875;49.468;11.200;2022-08-27T00:56:16;97649.97;;;22.86;59.49
50057;BME280;36875;49.468;11.200;2022-08-27T00:58:46;97649.97;;;22.86;59.39
50057;BME280;36875;49.468;11.200;2022-08-27T01:01:14;97659.34;;;22.85;59.33
50057;BME280;36875;49.468;11.200;2022-08-27T01:03:43;97654.66;;;22.86;59.33
50057;BME280;36875;49.468;11.200;2022-08-27T01:06:12;97655.81;;;22.85;59.23
50057;BME280;36875;49.468;11.200;2022-08-27T01:08:41;97664.03;;;22.85;59.11
50057;BME280;36875;49.468;11.200;2022-08-27T01:11:08;97661.31;;;22.85;59.53
50057;BME280;36875;49.468;11.200;2022-08-27T01:13:37;97664.03;;;22.85;59.39
50057;BME280;36875;49.468;11.200;2022-08-27T01:16:04;97646.72;;;22.72;59.05
50057;BME280;36875;49.468;11.200;2022-08-27T01:18:33;97672.59;;;22.83;59.52
50057;BME280;36875;49.468;11.200;2022-08-27T01:21:06;97662.44;;;22.84;59.24
50057;BME280;36875;49.468;11.200;2022-08-27T01:23:39;97673.41;;;22.84;59.35
50057;BME280;36875;49.468;11.200;2022-08-27T01:26:12;97672.59;;;22.83;59.27
50057;BME280;36875;49.468;11.200;2022-08-27T01:28:40;97669.88;;;22.83;59.29
50057;BME280;36875;49.468;11.200;2022-08-27T01:31:06;97680.84;;;22.83;59.24
50057;BME280;36875;49.468;11.200;2022-08-27T01:33:32;97670.19;;;22.82;59.11
50057;BME280;36875;49.468;11.200;2022-08-27T01:35:58;97679.22;;;22.82;59.19
50057;BME280;36875;49.468;11.200;2022-08-27T01:38:24;97676.47;;;22.82;59.13
50057;BME280;36875;49.468;11.200;2022-08-27T01:40:51;97674.88;;;22.81;59.28
50057;BME280;36875;49.468;11.200;2022-08-27T01:43:19;97679.22;;;22.82;59.29
50057;BME280;36875;49.468;11.200;2022-08-27T01:45:47;97676.47;;;22.82;59.33
50057;BME280;36875;49.468;11.200;2022-08-27T01:48:13;97681.84;;;22.79;59.26
50057;BME280;36875;49.468;11.200;2022-08-27T01:50:40;97677.63;;;22.81;59.28
50057;BME280;36875;49.468;11.200;2022-08-27T01:53:09;97680.38;;;22.81;59.29
50057;BME280;36875;49.468;11.200;2022-08-27T01:55:38;97680.38;;;22.81;58.99
50057;BME280;36875;49.468;11.200;2022-08-27T01:58:04;97685.88;;;22.81;59.07
50057;BME280;36875;49.468;11.200;2022-08-27T02:00:34;97685.88;;;22.81;59.08
50057;BME280;36875;49.468;11.200;2022-08-27T02:03:01;97681.50;;;22.80;59.07
50057;BME280;36875;49.468;11.200;2022-08-27T02:05:28;97684.25;;;22.80;59.17
50057;BME280;36875;49.468;11.200;2022-08-27T02:07:54;97682.66;;;22.79;59.08
50057;BME280;36875;49.468;11.200;2022-08-27T02:10:23;97684.25;;;22.80;58.99
50057;BME280;36875;49.468;11.200;2022-08-27T02:12:49;97684.91;;;22.77;58.96
50057;BME280;36875;49.468;11.200;2022-08-27T02:15:16;97682.66;;;22.79;59.00
50057;BME280;36875;49.468;11.200;2022-08-27T02:17:43;97676.00;;;22.80;59.12
50057;BME280;36875;49.468;11.200;2022-08-27T02:20:09;97673.28;;;22.80;59.00
50057;BME280;36875;49.468;11.200;2022-08-27T02:22:35;97676.34;;;22.79;59.09
50057;BME280;36875;49.468;11.200;2022-08-27T02:25:01;97670.84;;;22.79;59.00
50057;BME280;36875;49.468;11.200;2022-08-27T02:27:26;97670.84;;;22.79;59.15
50057;BME280;36875;49.468;11.200;2022-08-27T02:29:52;97665.38;;;22.79;59.04
50057;BME280;36875;49.468;11.200;2022-08-27T02:32:19;97665.38;;;22.79;58.86
50057;BME280;36875;49.468;11.200;2022-08-27T02:34:48;97666.53;;;22.78;58.96
50057;BME280;36875;49.468;11.200;2022-08-27T02:37:14;97661.38;;;22.76;58.90
50057;BME280;36875;49.468;11.200;2022-08-27T02:39:40;97656.41;;;22.69;58.82
50057;BME280;36875;49.468;11.200;2022-08-27T02:42:06;97647.72;;;22.67;58.84
50057;BME280;36875;49.468;11.200;2022-08-27T02:44:32;97658.28;;;22.78;58.84
50057;BME280;36875;49.468;11.200;2022-08-27T02:47:00;97663.78;;;22.78;58.85
50057;BME280;36875;49.468;11.200;2022-08-27T02:49:27;97652.22;;;22.72;58.68
50057;BME280;36875;49.468;11.200;2022-08-27T02:51:54;97660.22;;;22.77;58.91
50057;BME280;36875;49.468;11.200;2022-08-27T02:54:20;97646.41;;;22.74;58.94
50057;BME280;36875;49.468;11.200;2022-08-27T02:56:46;97644.91;;;22.76;58.90
50057;BME280;36875;49.468;11.200;2022-08-27T02:59:12;97644.91;;;22.76;58.67
50057;BME280;36875;49.468;11.200;2022-08-27T03:01:39;97635.88;;;22.76;58.63
50057;BME280;36875;49.468;11.200;2022-08-27T03:04:07;97634.72;;;22.77;58.71
50057;BME280;36875;49.468;11.200;2022-08-27T03:06:33;97628.66;;;22.71;58.53
50057;BME280;36875;49.468;11.200;2022-08-27T03:09:00;97626.84;;;22.75;58.85
50057;BME280;36875;49.468;11.200;2022-08-27T03:11:26;97626.84;;;22.75;58.81
50057;BME280;36875;49.468;11.200;2022-08-27T03:13:52;97627.66;;;22.76;58.73
50057;BME280;36875;49.468;11.200;2022-08-27T03:16:17;97624.91;;;22.76;58.61
50057;BME280;36875;49.468;11.200;2022-08-27T03:18:44;97628.44;;;22.76;58.78
50057;BME280;36875;49.468;11.200;2022-08-27T03:21:16;97621.34;;;22.75;58.57
50057;BME280;36875;49.468;11.200;2022-08-27T03:23:43;97627.66;;;22.76;58.67
50057;BME280;36875;49.468;11.200;2022-08-27T03:26:11;97620.88;;;22.73;58.62
50057;BME280;36875;49.468;11.200;2022-08-27T03:28:37;97619.75;;;22.74;58.70
50057;BME280;36875;49.468;11.200;2022-08-27T03:31:05;97629.56;;;22.75;58.54
50057;BME280;36875;49.468;11.200;2022-08-27T03:33:35;97634.59;;;22.73;58.69
50057;BME280;36875;49.468;11.200;2022-08-27T03:36:02;97627.53;;;22.72;58.63
50057;BME280;36875;49.468;11.200;2022-08-27T03:38:28;97629.13;;;22.73;58.61
50057;BME280;36875;49.468;11.200;2022-08-27T03:40:54;97625.44;;;22.69;58.65
50057;BME280;36875;49.468;11.200;2022-08-27T03:43:23;97645.56;;;22.73;58.89
50057;BME280;36875;49.468;11.200;2022-08-27T03:45:49;97634.59;;;22.73;58.51
50057;BME280;36875;49.468;11.200;2022-08-27T03:48:16;97607.47;;;22.59;58.58
50057;BME280;36875;49.468;11.200;2022-08-27T03:50:44;97635.44;;;22.74;58.61
50057;BME280;36875;49.468;11.200;2022-08-27T03:53:11;97640.09;;;22.73;58.58
50057;BME280;36875;49.468;11.200;2022-08-27T03:55:37;97628.06;;;22.65;58.44
50057;BME280;36875;49.468;11.200;2022-08-27T03:58:03;97638.50;;;22.72;58.59
50057;BME280;36875;49.468;11.200;2022-08-27T04:00:30;97634.94;;;22.71;58.47
50057;BME280;36875;49.468;11.200;2022-08-27T04:02:55;97622.03;;;22.72;58.81
50057;BME280;36875;49.468;11.200;2022-08-27T04:05:21;97623.97;;;22.71;58.53
50057;BME280;36875;49.468;11.200;2022-08-27T04:07:47;97623.50;;;22.69;58.63
50057;BME280;36875;49.468;11.200;2022-08-27T04:10:15;97620.41;;;22.71;58.30
50057;BME280;36875;49.468;11.200;2022-08-27T04:12:42;97625.91;;;22.71;58.42
50057;BME280;36875;49.468;11.200;2022-08-27T04:15:10;97625.91;;;22.71;58.34
50057;BME280;36875;49.468;11.200;2022-08-27T04:17:38;97617.69;;;22.71;58.71
50057;BME280;36875;49.468;11.200;2022-08-27T04:20:06;97623.16;;;22.71;58.39
50057;BME280;36875;49.468;11.200;2022-08-27T04:22:32;97614.94;;;22.71;58.74
50057;BME280;36875;49.468;11.200;2022-08-27T04:24:58;97620.41;;;22.71;58.38
50057;BME280;36875;49.468;11.200;2022-08-27T04:27:24;97605.31;;;22.65;58.45
50057;BME280;36875;49.468;11.200;2022-08-27T04:29:53;97603.25;;;22.62;58.50
50057;BME280;36875;49.468;11.200;2022-08-27T04:32:19;97616.09;;;22.70;58.60
50057;BME280;36875;49.468;11.200;2022-08-27T04:34:46;97616.09;;;22.70;58.55
50057;BME280;36875;49.468;11.200;2022-08-27T04:37:11;97614.16;;;22.70;58.50
50057;BME280;36875;49.468;11.200;2022-08-27T04:39:37;97618.84;;;22.70;58.41
50057;BME280;36875;49.468;11.200;2022-08-27T04:42:03;97623.50;;;22.69;58.42
50057;BME280;36875;49.468;11.200;2022-08-27T04:44:31;97619.63;;;22.70;58.46
50057;BME280;36875;49.468;11.200;2022-08-27T04:47:02;97621.44;;;22.66;58.26
50057;BME280;36875;49.468;11.200;2022-08-27T04:49:28;97618.00;;;22.69;58.36
50057;BME280;36875;49.468;11.200;2022-08-27T04:51:56;97623.50;;;22.69;58.53
50057;BME280;36875;49.468;11.200;2022-08-27T04:54:22;97609.53;;;22.62;58.26
50057;BME280;36875;49.468;11.200;2022-08-27T04:56:48;97613.41;;;22.61;58.30
50057;BME280;36875;49.468;11.200;2022-08-27T04:59:14;97623.50;;;22.69;58.35
50057;BME280;36875;49.468;11.200;2022-08-27T05:01:40;97627.41;;;22.68;58.29
50057;BME280;36875;49.468;11.200;2022-08-27T05:04:06;97626.09;;;22.66;58.38
50057;BME280;36875;49.468;11.200;2022-08-27T05:06:33;97625.97;;;22.62;58.51
50057;BME280;36875;49.468;11.200;2022-08-27T05:09:03;97639.16;;;22.69;58.45
50057;BME280;36875;49.468;11.200;2022-08-27T05:11:29;97643.03;;;22.68;58.23
50057;BME280;36875;49.468;11.200;2022-08-27T05:14:00;97643.84;;;22.68;58.40
50057;BME280;36875;49.468;11.200;2022-08-27T05:16:26;97650.13;;;22.69;58.27
50057;BME280;36875;49.468;11.200;2022-08-27T05:18:52;97641.09;;;22.68;58.29
50057;BME280;36875;49.468;11.200;2022-08-27T05:21:20;97644.66;;;22.69;58.46
50057;BME280;36875;49.468;11.200;2022-08-27T05:23:46;97638.91;;;22.62;58.45
50057;BME280;36875;49.468;11.200;2022-08-27T05:26:14;97634.44;;;22.57;58.29
50057;BME280;36875;49.468;11.200;2022-08-27T05:28:40;97652.09;;;22.68;58.42
50057;BME280;36875;49.468;11.200;2022-08-27T05:31:09;97649.34;;;22.68;58.34
50057;BME280;36875;49.468;11.200;2022-08-27T05:33:36;97656.75;;;22.68;58.36
50057;BME280;36875;49.468;11.200;2022-08-27T05:36:04;97652.09;;;22.68;58.47
50057;BME280;36875;49.468;11.200;2022-08-27T05:38:30;97641.97;;;22.60;58.24
50057;BME280;36875;49.468;11.200;2022-08-27T05:41:05;97651.25;;;22.68;58.34
50057;BME280;36875;49.468;11.200;2022-08-27T05:43:33;97641.31;;;22.63;58.41
50057;BME280;36875;49.468;11.200;2022-08-27T05:46:02;97647.38;;;22.69;58.30
50057;BME280;36875;49.468;11.200;2022-08-27T05:48:29;97648.50;;;22.68;58.31
50057;BME280;36875;49.468;11.200;2022-08-27T05:50:55;97649.34;;;22.68;58.24
50057;BME280;36875;49.468;11.200;2022-08-27T05:53:20;97654.81;;;22.68;58.27
50057;BME280;36875;49.468;11.200;2022-08-27T05:55:46;97660.31;;;22.68;58.23
50057;BME280;36875;49.468;11.200;2022-08-27T05:58:12;97657.91;;;22.67;58.36
50057;BME280;36875;49.468;11.200;2022-08-27T06:00:58;97657.91;;;22.67;58.19
50057;BME280;36875;49.468;11.200;2022-08-27T06:03:30;97657.91;;;22.67;58.16
50057;BME280;36875;49.468;11.200;2022-08-27T06:05:59;97661.75;;;22.66;58.33
50057;BME280;36875;49.468;11.200;2022-08-27T06:08:26;97666.13;;;22.67;58.35
50057;BME280;36875;49.468;11.200;2022-08-27T06:10:51;97666.91;;;22.67;58.26
50057;BME280;36875;49.468;11.200;2022-08-27T06:13:17;97664.19;;;22.67;58.30
50057;BME280;36875;49.468;11.200;2022-08-27T06:15:45;97668.06;;;22.66;58.41
50057;BME280;36875;49.468;11.200;2022-08-27T06:18:15;97650.06;;;22.57;58.23
50057;BME280;36875;49.468;11.200;2022-08-27T06:20:41;97660.63;;;22.67;58.36
50057;BME280;36875;49.468;11.200;2022-08-27T06:23:06;97660.63;;;22.67;58.67
50057;BME280;36875;49.468;11.200;2022-08-27T06:25:32;97657.09;;;22.66;58.83
50057;BME280;36875;49.468;11.200;2022-08-27T06:27:58;97669.66;;;22.67;58.85
50057;BME280;36875;49.468;11.200;2022-08-27T06:30:24;97659.47;;;22.68;58.79
50057;BME280;36875;49.468;11.200;2022-08-27T06:32:52;97664.97;;;22.68;58.96
50057;BME280;36875;49.468;11.200;2022-08-27T06:35:20;97660.63;;;22.67;58.54
50057;BME280;36875;49.468;11.200;2022-08-27T06:37:45;97661.91;;;22.69;58.67
50057;BME280;36875;49.468;11.200;2022-08-27T06:40:11;97672.06;;;22.69;59.01
50057;BME280;36875;49.468;11.200;2022-08-27T06:42:36;97669.00;;;22.70;59.00
50057;BME280;36875;49.468;11.200;2022-08-27T06:45:03;97672.53;;;22.71;59.08
50057;BME280;36875;49.468;11.200;2022-08-27T06:47:30;97669.78;;;22.71;59.33
50057;BME280;36875;49.468;11.200;2022-08-27T06:49:55;97655.47;;;22.65;59.39
50057;BME280;36875;49.468;11.200;2022-08-27T06:52:24;97665.47;;;22.70;59.50
50057;BME280;36875;49.468;11.200;2022-08-27T06:54:49;97672.22;;;22.73;59.44
50057;BME280;36875;49.468;11.200;2022-08-27T06:57:15;97678.97;;;22.75;59.44
50057;BME280;36875;49.468;11.200;2022-08-27T06:59:41;97681.69;;;22.75;59.54
50057;BME280;36875;49.468;11.200;2022-08-27T07:02:06;97685.59;;;22.74;59.76
50057;BME280;36875;49.468;11.200;2022-08-27T07:04:32;97684.81;;;22.74;59.33
50057;BME280;36875;49.468;11.200;2022-08-27T07:06:59;97681.22;;;22.73;59.64
50057;BME280;36875;49.468;11.200;2022-08-27T07:09:26;97687.06;;;22.71;59.28
50057;BME280;36875;49.468;11.200;2022-08-27T07:11:51;97686.25;;;22.71;59.63
50057;BME280;36875;49.468;11.200;2022-08-27T07:14:17;97689.94;;;22.75;59.60
50057;BME280;36875;49.468;11.200;2022-08-27T07:16:43;97693.50;;;22.76;59.62
50057;BME280;36875;49.468;11.200;2022-08-27T07:19:08;97689.59;;;22.77;59.96
50057;BME280;36875;49.468;11.200;2022-08-27T07:21:34;97697.50;;;22.78;60.01
50057;BME280;36875;49.468;11.200;2022-08-27T07:24:02;97693.63;;;22.79;60.06
50057;BME280;36875;49.468;11.200;2022-08-27T07:26:31;97689.72;;;22.80;60.04
50057;BME280;36875;49.468;11.200;2022-08-27T07:28:57;97678.81;;;22.71;59.93
50057;BME280;36875;49.468;11.200;2022-08-27T07:31:23;97701.16;;;22.82;60.03
50057;BME280;36875;49.468;11.200;2022-08-27T07:33:49;97697.31;;;22.83;60.50
50057;BME280;36875;49.468;11.200;2022-08-27T07:36:15;97695.03;;;22.85;60.27
50057;BME280;36875;49.468;11.200;2022-08-27T07:38:40;97700.50;;;22.85;60.38
50057;BME280;36875;49.468;11.200;2022-08-27T07:41:07;97696.97;;;22.85;60.50
50057;BME280;36875;49.468;11.200;2022-08-27T07:43:34;97692.28;;;22.85;60.11
50057;BME280;36875;49.468;11.200;2022-08-27T07:46:19;97705.66;;;22.87;60.22
50057;BME280;36875;49.468;11.200;2022-08-27T07:48:44;97706.19;;;22.80;61.57
50057;BME280;36875;49.468;11.200;2022-08-27T07:51:13;97711.75;;;22.71;62.52
50057;BME280;36875;49.468;11.200;2022-08-27T07:53:38;97702.06;;;22.74;60.54
50057;BME280;36875;49.468;11.200;2022-08-27T07:56:06;97699.19;;;22.70;61.13
50057;BME280;36875;49.468;11.200;2022-08-27T07:58:34;97708.47;;;22.78;60.89
50057;BME280;36875;49.468;11.200;2022-08-27T08:00:59;97707.81;;;22.81;61.30
50057;BME280;36875;49.468;11.200;2022-08-27T08:03:26;97709.41;;;22.82;60.98
50057;BME280;36875;49.468;11.200;2022-08-27T08:05:52;97711.81;;;22.84;61.13
50057;BME280;36875;49.468;11.200;2022-08-27T08:08:18;97713.75;;;22.83;61.01
50057;BME280;36875;49.468;11.200;2022-08-27T08:10:44;97716.50;;;22.83;60.75
50057;BME280;36875;49.468;11.200;2022-08-27T08:13:10;97720.38;;;22.82;60.62
50057;BME280;36875;49.468;11.200;2022-08-27T08:15:38;97720.38;;;22.82;60.93
50057;BME280;36875;49.468;11.200;2022-08-27T08:18:04;97721.19;;;22.83;60.55
50057;BME280;36875;49.468;11.200;2022-08-27T08:20:30;97731.34;;;22.82;60.65
50057;BME280;36875;49.468;11.200;2022-08-27T08:22:59;97729.75;;;22.81;60.58
50057;BME280;36875;49.468;11.200;2022-08-27T08:25:25;97726.19;;;22.81;60.87
50057;BME280;36875;49.468;11.200;2022-08-27T08:27:51;97728.94;;;22.81;60.57
50057;BME280;36875;49.468;11.200;2022-08-27T08:30:16;97728.94;;;22.81;60.35
50057;BME280;36875;49.468;11.200;2022-08-27T08:32:43;97729.28;;;22.79;60.54
50057;BME280;36875;49.468;11.200;2022-08-27T08:35:09;97734.78;;;22.79;60.56
50057;BME280;36875;49.468;11.200;2022-08-27T08:37:35;97736.38;;;22.80;60.46
50057;BME280;36875;49.468;11.200;2022-08-27T08:40:01;97734.78;;;22.79;60.34
50057;BME280;36875;49.468;11.200;2022-08-27T08:42:30;97725.59;;;22.75;60.14
50057;BME280;36875;49.468;11.200;2022-08-27T08:44:58;97732.03;;;22.79;60.35
50057;BME280;36875;49.468;11.200;2022-08-27T08:47:29;97735.91;;;22.78;61.29
50057;BME280;36875;49.468;11.200;2022-08-27T08:50:02;97730.88;;;22.80;60.82
50057;BME280;36875;49.468;11.200;2022-08-27T08:52:41;97725.41;;;22.80;61.31
50057;BME280;36875;49.468;11.200;2022-08-27T08:55:16;97716.03;;;22.81;60.68
50057;BME280;36875;49.468;11.200;2022-08-27T08:57:52;97717.16;;;22.80;61.12
50057;BME280;36875;49.468;11.200;2022-08-27T09:00:22;97723.44;;;22.81;61.00
50057;BME280;36875;49.468;11.200;2022-08-27T09:02:51;97718.78;;;22.81;61.08
50057;BME280;36875;49.468;11.200;2022-08-27T09:05:21;97718.78;;;22.81;61.18
50057;BME280;36875;49.468;11.200;2022-08-27T09:07:53;97720.69;;;22.81;61.41
50057;BME280;36875;49.468;11.200;2022-08-27T09:10:27;97720.38;;;22.82;61.47
50057;BME280;36875;49.468;11.200;2022-08-27T09:13:01;97721.19;;;22.83;61.50
50057;BME280;36875;49.468;11.200;2022-08-27T09:15:29;97727.34;;;22.80;61.45
50057;BME280;36875;49.468;11.200;2022-08-27T09:18:04;97705.78;;;22.69;61.45
50057;BME280;36875;49.468;11.200;2022-08-27T09:20:32;97734.56;;;22.84;61.74
50057;BME280;36875;49.468;11.200;2022-08-27T09:23:05;97734.56;;;22.84;61.52
50057;BME280;36875;49.468;11.200;2022-08-27T09:25:37;97724.41;;;22.85;61.69
50057;BME280;36875;49.468;11.200;2022-08-27T09:28:06;97727.16;;;22.85;61.59
50057;BME280;36875;49.468;11.200;2022-08-27T09:30:53;97736.19;;;22.85;61.91
50057;BME280;36875;49.468;11.200;2022-08-27T09:33:20;97730.69;;;22.85;61.81
50057;BME280;36875;49.468;11.200;2022-08-27T09:35:49;97732.63;;;22.85;62.03
50057;BME280;36875;49.468;11.200;2022-08-27T09:38:23;97741.34;;;22.87;61.75
50057;BME280;36875;49.468;11.200;2022-08-27T09:40:50;97744.06;;;22.87;61.66
50057;BME280;36875;49.468;11.200;2022-08-27T09:43:20;97737.78;;;22.86;61.80
50057;BME280;36875;49.468;11.200;2022-08-27T09:45:49;97733.91;;;22.87;61.99
50057;BME280;36875;49.468;11.200;2022-08-27T09:48:19;97740.19;;;22.88;61.94
50057;BME280;36875;49.468;11.200;2022-08-27T09:50:48;97734.22;;;22.86;61.79
50057;BME280;36875;49.468;11.200;2022-08-27T09:53:17;97728.94;;;22.81;62.17
50057;BME280;36875;49.468;11.200;2022-08-27T09:55:46;97745.66;;;22.88;62.10
50057;BME280;36875;49.468;11.200;2022-08-27T09:58:18;97739.38;;;22.87;61.90
50057;BME280;36875;49.468;11.200;2022-08-27T10:00:45;97735.53;;;22.88;61.59
50057;BME280;36875;49.468;11.200;2022-08-27T10:03:10;97737.44;;;22.88;61.58
50057;BME280;36875;49.468;11.200;2022-08-27T10:05:38;97734.69;;;22.88;61.70
50057;BME280;36875;49.468;11.200;2022-08-27T10:08:11;97742.59;;;22.89;61.55
50057;BME280;36875;49.468;11.200;2022-08-27T10:10:45;97733.91;;;22.87;61.50
50057;BME280;36875;49.468;11.200;2022-08-27T10:13:19;97733.91;;;22.87;61.53
50057;BME280;36875;49.468;11.200;2022-08-27T10:15:56;97737.09;;;22.89;61.61
50057;BME280;36875;49.468;11.200;2022-08-27T10:18:30;97734.38;;;22.89;61.31
50057;BME280;36875;49.468;11.200;2022-08-27T10:21:03;97741.47;;;22.90;61.32
50057;BME280;36875;49.468;11.200;2022-08-27T10:23:38;97737.91;;;22.90;61.21
50057;BME280;36875;49.468;11.200;2022-08-27T10:26:11;97734.69;;;22.88;61.22
50057;BME280;36875;49.468;11.200;2022-08-27T10:28:52;97740.66;;;22.90;61.33
50057;BME280;36875;49.468;11.200;2022-08-27T10:31:25;97729.91;;;22.85;61.10
50057;BME280;36875;49.468;11.200;2022-08-27T10:34:05;97730.69;;;22.85;61.14
50057;BME280;36875;49.468;11.200;2022-08-27T10:36:39;97743.06;;;22.91;61.25
50057;BME280;36875;49.468;11.200;2022-08-27T10:39:15;97737.72;;;22.95;62.51
50057;BME280;36875;49.468;11.200;2022-08-27T10:41:50;97744.13;;;22.99;62.67
50057;BME280;36875;49.468;11.200;2022-08-27T10:44:32;97743.66;;;22.97;62.12
50057;BME280;36875;49.468;11.200;2022-08-27T10:47:11;97743.53;;;22.94;61.73
50057;BME280;36875;49.468;11.200;2022-08-27T10:49:45;97746.78;;;22.96;61.92
50057;BME280;36875;49.468;11.200;2022-08-27T10:52:18;97744.81;;;22.96;61.71
50057;BME280;36875;49.468;11.200;2022-08-27T10:54:51;97740.13;;;22.97;61.71
50057;BME280;36875;49.468;11.200;2022-08-27T10:57:22;97729.47;;;22.95;62.01
50057;BME280;36875;49.468;11.200;2022-08-27T10:59:57;97739.47;;;23.00;61.73
50057;BME280;36875;49.468;11.200;2022-08-27T11:02:30;97737.50;;;23.00;61.49
50057;BME280;36875;49.468;11.200;2022-08-27T11:05:01;97732.81;;;23.01;61.33
50057;BME280;36875;49.468;11.200;2022-08-27T11:07:32;97737.50;;;23.00;61.52
50057;BME280;36875;49.468;11.200;2022-08-27T11:10:04;97732.81;;;23.01;61.47
50057;BME280;36875;49.468;11.200;2022-08-27T11:12:35;97733.66;;;23.01;61.78
50057;BME280;36875;49.468;11.200;2022-08-27T11:15:04;97735.41;;;23.06;62.19
50057;BME280;36875;49.468;11.200;2022-08-27T11:17:39;97732.44;;;23.11;62.15
50057;BME280;36875;49.468;11.200;2022-08-27T11:20:09;97724.03;;;23.16;62.21
50057;BME280;36875;49.468;11.200;2022-08-27T11:22:39;97724.34;;;23.15;62.11
50057;BME280;36875;49.468;11.200;2022-08-27T11:25:23;97727.09;;;23.15;61.86
50057;BME280;36875;49.468;11.200;2022-08-27T11:27:52;97714.38;;;23.10;62.03
50057;BME280;36875;49.468;11.200;2022-08-27T11:30:22;97718.53;;;23.16;61.85
50057;BME280;36875;49.468;11.200;2022-08-27T11:33:00;97713.84;;;23.17;61.79
50057;BME280;36875;49.468;11.200;2022-08-27T11:35:34;97696.50;;;23.04;61.83
50057;BME280;36875;49.468;11.200;2022-08-27T11:38:19;97703.63;;;23.05;61.79
50057;BME280;36875;49.468;11.200;2022-08-27T11:41:04;97706.97;;;23.11;61.55
50057;BME280;36875;49.468;11.200;2022-08-27T11:43:34;97700.88;;;23.05;61.67
50057;BME280;36875;49.468;11.200;2022-08-27T11:46:02;97702.06;;;23.16;61.68
50057;BME280;36875;49.468;11.200;2022-08-27T11:48:30;97693.38;;;23.14;61.49
50057;BME280;36875;49.468;11.200;2022-08-27T11:50:59;97694.50;;;23.13;61.39
50057;BME280;36875;49.468;11.200;2022-08-27T11:53:28;97690.63;;;23.14;61.63
50057;BME280;36875;49.468;11.200;2022-08-27T11:55:56;97690.38;;;23.19;61.47
50057;BME280;36875;49.468;11.200;2022-08-27T11:58:25;97688.78;;;23.18;61.38
50057;BME280;36875;49.468;11.200;2022-08-27T12:00:52;97692.94;;;23.24;61.60
50057;BME280;36875;49.468;11.200;2022-08-27T12:03:27;97671.03;;;23.16;61.39
50057;BME280;36875;49.468;11.200;2022-08-27T12:06:17;97690.63;;;23.26;61.30
50057;BME280;36875;49.468;11.200;2022-08-27T12:08:44;97690.19;;;23.24;61.67
50057;BME280;36875;49.468;11.200;2022-08-27T12:11:36;97689.72;;;23.22;61.76
50057;BME280;36875;49.468;11.200;2022-08-27T12:14:16;97679.66;;;23.26;61.59
50057;BME280;36875;49.468;11.200;2022-08-27T12:16:52;97676.44;;;23.24;61.20
50057;BME280;36875;49.468;11.200;2022-08-27T12:19:30;97681.16;;;23.24;61.10
50057;BME280;36875;49.468;11.200;2022-08-27T12:22:11;97676.00;;;23.22;61.29
50057;BME280;36875;49.468;11.200;2022-08-27T12:24:48;97687.44;;;23.24;61.15
50057;BME280;36875;49.468;11.200;2022-08-27T12:27:32;97678.59;;;23.19;61.96
50057;BME280;36875;49.468;11.200;2022-08-27T12:30:06;97681.59;;;23.26;61.72
50057;BME280;36875;49.468;11.200;2022-08-27T12:32:44;97671.63;;;23.21;61.77
50057;BME280;36875;49.468;11.200;2022-08-27T12:35:14;97663.16;;;23.14;61.55
50057;BME280;36875;49.468;11.200;2022-08-27T12:37:43;97666.84;;;23.18;61.93
50057;BME280;36875;49.468;11.200;2022-08-27T12:40:18;97669.63;;;23.31;61.92
50057;BME280;36875;49.468;11.200;2022-08-27T12:42:49;97668.47;;;23.32;61.58
50057;BME280;36875;49.468;11.200;2022-08-27T12:45:20;97663.44;;;23.34;62.03
50057;BME280;36875;49.468;11.200;2022-08-27T12:47:47;97661.47;;;23.34;61.74
50057;BME280;36875;49.468;11.200;2022-08-27T12:50:17;97645.72;;;23.31;62.06
50057;BME280;36875;49.468;11.200;2022-08-27T12:52:58;97653.38;;;23.38;61.59
50057;BME280;36875;49.468;11.200;2022-08-27T12:55:38;97644.00;;;23.39;61.42
50057;BME280;36875;49.468;11.200;2022-08-27T12:58:11;97651.13;;;23.40;61.39
50057;BME280;36875;49.468;11.200;2022-08-27T13:00:56;97646.28;;;23.37;61.46